sensor_id;sensor_type;location;lat;lon;timestamp;pressure;altitude;pressure_sealevel;temperature;humidity
38880;BME280;25887;30.194;-97.880;2022-07-23T00:01:23;98213.63;;;39.53;26.67
38880;BME280;25887;30.194;-97.880;2022-07-23T00:03:48;98215.69;;;39.51;26.61
38880;BME280;25887;30.194;-97.880;2022-07-23T00:06:15;98212.38;;;39.49;26.33
38880;BME280;25887;30.194;-97.880;2022-07-23T00:08:40;98203.66;;;39.47;26.61
38880;BME280;25887;30.194;-97.880;2022-07-23T00:11:06;98205.69;;;39.45;26.84
38880;BME280;25887;30.194;-97.880;2022-07-23T00:13:32;98210.44;;;39.43;26.74
38880;BME280;25887;30.194;-97.880;2022-07-23T00:15:58;98212.47;;;39.41;26.33
38880;BME280;25887;30.194;-97.880;2022-07-23T00:18:24;98220.72;;;39.39;26.58
38880;BME280;25887;30.194;-97.880;2022-07-23T00:20:50;98223.13;;;39.34;26.23
38880;BME280;25887;30.194;-97.880;2022-07-23T00:23:16;98217.66;;;39.27;25.77
38880;BME280;25887;30.194;-97.880;2022-07-23T00:25:42;98220.09;;;39.22;26.04
38880;BME280;25887;30.194;-97.880;2022-07-23T00:28:08;98227.50;;;39.20;26.01
38880;BME280;25887;30.194;-97.880;2022-07-23T00:30:34;98228.91;;;39.16;26.04
38880;BME280;25887;30.194;-97.880;2022-07-23T00:33:01;98233.59;;;39.14;26.03
38880;BME280;25887;30.194;-97.880;2022-07-23T00:35:30;98235.81;;;39.11;26.23
38880;BME280;25887;30.194;-97.880;2022-07-23T00:37:56;98235.53;;;39.06;26.64
38880;BME280;25887;30.194;-97.880;2022-07-23T00:40:22;98238.78;;;39.01;25.84
38880;BME280;25887;30.194;-97.880;2022-07-23T00:42:48;98239.97;;;38.98;26.32
38880;BME280;25887;30.194;-97.880;2022-07-23T00:45:14;98240.53;;;38.94;26.43
38880;BME280;25887;30.194;-97.880;2022-07-23T00:47:40;98247.13;;;38.91;26.42
38880;BME280;25887;30.194;-97.880;2022-07-23T00:50:06;98251.16;;;38.87;26.47
38880;BME280;25887;30.194;-97.880;2022-07-23T00:52:33;98249.84;;;38.83;26.13
38880;BME280;25887;30.194;-97.880;2022-07-23T00:54:59;98252.28;;;38.78;26.30
38880;BME280;25887;30.194;-97.880;2022-07-23T00:57:25;98254.66;;;38.73;25.91
38880;BME280;25887;30.194;-97.880;2022-07-23T00:59:51;98264.94;;;38.69;26.35
38880;BME280;25887;30.194;-97.880;2022-07-23T01:05:31;98278.75;;;38.58;26.25
38880;BME280;25887;30.194;-97.880;2022-07-23T01:08:16;98281.16;;;38.53;26.34
38880;BME280;25887;30.194;-97.880;2022-07-23T01:10:42;98274.47;;;38.49;26.90
38880;BME280;25887;30.194;-97.880;2022-07-23T01:13:09;98279.38;;;38.45;26.57
38880;BME280;25887;30.194;-97.880;2022-07-23T01:15:36;98284.25;;;38.42;26.68
38880;BME280;25887;30.194;-97.880;2022-07-23T01:18:03;98280.94;;;38.40;26.82
38880;BME280;25887;30.194;-97.880;2022-07-23T01:20:29;98280.63;;;38.35;26.63
38880;BME280;25887;30.194;-97.880;2022-07-23T01:22:55;98275.97;;;38.29;26.41
38880;BME280;25887;30.194;-97.880;2022-07-23T01:25:21;98287.25;;;38.24;26.70
38880;BME280;25887;30.194;-97.880;2022-07-23T01:27:58;98276.81;;;38.21;26.76
38880;BME280;25887;30.194;-97.880;2022-07-23T01:33:25;98283.44;;;38.10;26.74
38880;BME280;25887;30.194;-97.880;2022-07-23T01:35:51;98284.81;;;38.06;26.55
38880;BME280;25887;30.194;-97.880;2022-07-23T01:38:16;98286.00;;;38.04;26.62
38880;BME280;25887;30.194;-97.880;2022-07-23T01:40:42;98288.22;;;38.00;26.95
38880;BME280;25887;30.194;-97.880;2022-07-23T01:43:08;98297.28;;;37.99;26.89
38880;BME280;25887;30.194;-97.880;2022-07-23T01:45:33;98300.28;;;37.96;27.08
38880;BME280;25887;30.194;-97.880;2022-07-23T01:48:12;98302.31;;;37.94;26.77
38880;BME280;25887;30.194;-97.880;2022-07-23T01:50:38;98313.41;;;37.91;27.13
38880;BME280;25887;30.194;-97.880;2022-07-23T01:53:04;98310.41;;;37.86;26.68
38880;BME280;25887;30.194;-97.880;2022-07-23T01:55:30;98311.94;;;37.80;26.63
38880;BME280;25887;30.194;-97.880;2022-07-23T01:57:56;98314.63;;;37.72;26.81
38880;BME280;25887;30.194;-97.880;2022-07-23T02:00:21;98314.47;;;37.65;27.07
38880;BME280;25887;30.194;-97.880;2022-07-23T02:02:47;98320.56;;;37.59;27.61
38880;BME280;25887;30.194;-97.880;2022-07-23T02:05:13;98326.41;;;37.55;27.50
38880;BME280;25887;30.194;-97.880;2022-07-23T02:07:39;98328.78;;;37.50;27.65
38880;BME280;25887;30.194;-97.880;2022-07-23T02:10:05;98328.47;;;37.45;27.60
38880;BME280;25887;30.194;-97.880;2022-07-23T02:12:31;98332.66;;;37.39;28.04
38880;BME280;25887;30.194;-97.880;2022-07-23T02:14:57;98328.81;;;37.33;27.88
38880;BME280;25887;30.194;-97.880;2022-07-23T02:17:22;98336.66;;;37.27;28.29
38880;BME280;25887;30.194;-97.880;2022-07-23T02:19:48;98332.84;;;37.21;28.52
38880;BME280;25887;30.194;-97.880;2022-07-23T02:22:14;98340.56;;;37.16;29.01
38880;BME280;25887;30.194;-97.880;2022-07-23T02:24:39;98340.38;;;37.09;28.79
38880;BME280;25887;30.194;-97.880;2022-07-23T02:33:11;98343.56;;;36.89;30.41
38880;BME280;25887;30.194;-97.880;2022-07-23T02:47:51;98377.50;;;36.55;31.25
38880;BME280;25887;30.194;-97.880;2022-07-23T02:53:20;98386.03;;;36.43;31.62
38880;BME280;25887;30.194;-97.880;2022-07-23T02:55:45;98389.47;;;36.35;31.94
38880;BME280;25887;30.194;-97.880;2022-07-23T03:01:23;98405.78;;;36.16;32.02
38880;BME280;25887;30.194;-97.880;2022-07-23T03:03:49;98403.75;;;36.10;32.25
38880;BME280;25887;30.194;-97.880;2022-07-23T03:06:14;98408.78;;;36.05;32.40
38880;BME280;25887;30.194;-97.880;2022-07-23T03:08:40;98418.25;;;35.99;32.42
38880;BME280;25887;30.194;-97.880;2022-07-23T03:11:06;98413.72;;;35.91;32.67
38880;BME280;25887;30.194;-97.880;2022-07-23T03:13:39;98425.84;;;35.86;32.76
38880;BME280;25887;30.194;-97.880;2022-07-23T03:16:05;98434.34;;;35.81;33.01
38880;BME280;25887;30.194;-97.880;2022-07-23T03:18:31;98438.34;;;35.77;32.71
38880;BME280;25887;30.194;-97.880;2022-07-23T03:20:56;98453.03;;;35.73;33.03
38880;BME280;25887;30.194;-97.880;2022-07-23T03:23:22;98452.81;;;35.66;32.89
38880;BME280;25887;30.194;-97.880;2022-07-23T03:25:48;98456.94;;;35.61;32.84
38880;BME280;25887;30.194;-97.880;2022-07-23T03:28:17;98457.41;;;35.56;33.12
38880;BME280;25887;30.194;-97.880;2022-07-23T03:30:43;98452.69;;;35.50;33.16
38880;BME280;25887;30.194;-97.880;2022-07-23T03:33:12;98456.66;;;35.46;32.99
38880;BME280;25887;30.194;-97.880;2022-07-23T03:35:38;98455.44;;;35.40;33.37
38880;BME280;25887;30.194;-97.880;2022-07-23T03:38:04;98460.41;;;35.35;33.56
38880;BME280;25887;30.194;-97.880;2022-07-23T03:40:30;98456.50;;;35.30;33.68
38880;BME280;25887;30.194;-97.880;2022-07-23T03:42:56;98455.44;;;35.23;33.93
38880;BME280;25887;30.194;-97.880;2022-07-23T03:45:21;98455.94;;;35.18;33.62
38880;BME280;25887;30.194;-97.880;2022-07-23T03:47:47;98462.56;;;35.14;33.62
38880;BME280;25887;30.194;-97.880;2022-07-23T03:50:13;98473.69;;;35.09;33.72
38880;BME280;25887;30.194;-97.880;2022-07-23T03:52:39;98474.00;;;35.06;33.64
38880;BME280;25887;30.194;-97.880;2022-07-23T03:55:05;98474.16;;;35.05;33.83
38880;BME280;25887;30.194;-97.880;2022-07-23T03:57:31;98473.31;;;35.04;33.81
38880;BME280;25887;30.194;-97.880;2022-07-23T03:59:57;98477.81;;;35.04;33.71
38880;BME280;25887;30.194;-97.880;2022-07-23T04:02:22;98473.78;;;35.00;33.71
38880;BME280;25887;30.194;-97.880;2022-07-23T04:04:48;98476.91;;;34.95;34.17
38880;BME280;25887;30.194;-97.880;2022-07-23T04:07:14;98472.03;;;34.90;33.77
38880;BME280;25887;30.194;-97.880;2022-07-23T04:09:42;98479.59;;;34.85;33.86
38880;BME280;25887;30.194;-97.880;2022-07-23T04:12:08;98476.56;;;34.80;34.05
38880;BME280;25887;30.194;-97.880;2022-07-23T04:14:33;98473.34;;;34.77;34.27
38880;BME280;25887;30.194;-97.880;2022-07-23T04:16:59;98478.16;;;34.73;33.96
38880;BME280;25887;30.194;-97.880;2022-07-23T04:19:25;98483.09;;;34.68;34.51
38880;BME280;25887;30.194;-97.880;2022-07-23T04:21:51;98481.72;;;34.64;34.37
38880;BME280;25887;30.194;-97.880;2022-07-23T04:24:17;98481.31;;;34.59;34.57
38880;BME280;25887;30.194;-97.880;2022-07-23T04:29:33;98490.38;;;34.48;35.08
38880;BME280;25887;30.194;-97.880;2022-07-23T04:31:58;98494.47;;;34.43;35.14
38880;BME280;25887;30.194;-97.880;2022-07-23T04:34:24;98499.38;;;34.38;35.74
38880;BME280;25887;30.194;-97.880;2022-07-23T04:36:52;98499.00;;;34.32;35.54
38880;BME280;25887;30.194;-97.880;2022-07-23T04:39:18;98503.78;;;34.29;35.42
38880;BME280;25887;30.194;-97.880;2022-07-23T04:41:43;98504.06;;;34.26;35.91
38880;BME280;25887;30.194;-97.880;2022-07-23T04:44:09;98501.84;;;34.21;35.90
38880;BME280;25887;30.194;-97.880;2022-07-23T04:46:35;98504.97;;;34.17;35.67
38880;BME280;25887;30.194;-97.880;2022-07-23T04:49:01;98506.06;;;34.14;35.70
38880;BME280;25887;30.194;-97.880;2022-07-23T04:51:26;98510.03;;;34.10;36.34
38880;BME280;25887;30.194;-97.880;2022-07-23T04:53:54;98514.09;;;34.04;36.30
38880;BME280;25887;30.194;-97.880;2022-07-23T04:56:20;98508.34;;;33.99;35.99
38880;BME280;25887;30.194;-97.880;2022-07-23T04:58:46;98509.50;;;33.97;36.25
38880;BME280;25887;30.194;-97.880;2022-07-23T05:01:11;98508.09;;;33.93;36.64
38880;BME280;25887;30.194;-97.880;2022-07-23T05:03:37;98509.34;;;33.89;36.48
38880;BME280;25887;30.194;-97.880;2022-07-23T05:09:01;98510.22;;;33.79;37.23
38880;BME280;25887;30.194;-97.880;2022-07-23T05:11:27;98507.44;;;33.71;37.78
38880;BME280;25887;30.194;-97.880;2022-07-23T05:13:52;98512.47;;;33.65;38.16
38880;BME280;25887;30.194;-97.880;2022-07-23T05:16:18;98515.16;;;33.55;37.87
38880;BME280;25887;30.194;-97.880;2022-07-23T05:18:44;98521.75;;;33.51;38.14
38880;BME280;25887;30.194;-97.880;2022-07-23T05:21:10;98519.94;;;33.42;38.28
38880;BME280;25887;30.194;-97.880;2022-07-23T05:23:35;98534.50;;;33.38;38.28
38880;BME280;25887;30.194;-97.880;2022-07-23T05:26:01;98540.38;;;33.32;38.41
38880;BME280;25887;30.194;-97.880;2022-07-23T05:28:27;98544.28;;;33.28;38.39
38880;BME280;25887;30.194;-97.880;2022-07-23T05:30:53;98539.50;;;33.21;38.77
38880;BME280;25887;30.194;-97.880;2022-07-23T05:33:19;98539.22;;;33.15;39.63
38880;BME280;25887;30.194;-97.880;2022-07-23T05:35:45;98538.22;;;33.06;39.62
38880;BME280;25887;30.194;-97.880;2022-07-23T05:38:10;98542.41;;;32.99;40.08
38880;BME280;25887;30.194;-97.880;2022-07-23T05:40:36;98547.34;;;32.94;40.07
38880;BME280;25887;30.194;-97.880;2022-07-23T05:43:02;98545.91;;;32.90;40.06
38880;BME280;25887;30.194;-97.880;2022-07-23T05:45:28;98553.47;;;32.85;39.76
38880;BME280;25887;30.194;-97.880;2022-07-23T05:47:53;98556.38;;;32.82;40.42
38880;BME280;25887;30.194;-97.880;2022-07-23T05:50:19;98550.88;;;32.74;41.15
38880;BME280;25887;30.194;-97.880;2022-07-23T05:52:45;98555.75;;;32.68;40.97
38880;BME280;25887;30.194;-97.880;2022-07-23T05:55:11;98557.03;;;32.64;41.11
38880;BME280;25887;30.194;-97.880;2022-07-23T05:57:37;98554.75;;;32.60;41.06
38880;BME280;25887;30.194;-97.880;2022-07-23T06:00:04;98556.03;;;32.56;41.32
38880;BME280;25887;30.194;-97.880;2022-07-23T06:02:30;98561.03;;;32.49;41.97
38880;BME280;25887;30.194;-97.880;2022-07-23T06:04:56;98547.28;;;32.44;41.50
38880;BME280;25887;30.194;-97.880;2022-07-23T06:07:22;98554.56;;;32.42;41.46
38880;BME280;25887;30.194;-97.880;2022-07-23T06:09:47;98562.06;;;32.37;42.16
38880;BME280;25887;30.194;-97.880;2022-07-23T06:12:15;98561.38;;;32.35;41.78
38880;BME280;25887;30.194;-97.880;2022-07-23T06:14:40;98558.25;;;32.30;42.14
38880;BME280;25887;30.194;-97.880;2022-07-23T06:17:07;98563.81;;;32.27;42.29
38880;BME280;25887;30.194;-97.880;2022-07-23T06:19:33;98567.75;;;32.23;42.57
38880;BME280;25887;30.194;-97.880;2022-07-23T06:21:58;98574.28;;;32.19;42.68
38880;BME280;25887;30.194;-97.880;2022-07-23T06:24:24;98569.09;;;32.17;42.47
38880;BME280;25887;30.194;-97.880;2022-07-23T06:26:50;98571.91;;;32.15;42.57
38880;BME280;25887;30.194;-97.880;2022-07-23T06:29:16;98579.03;;;32.15;42.58
38880;BME280;25887;30.194;-97.880;2022-07-23T06:31:42;98579.13;;;32.13;42.85
38880;BME280;25887;30.194;-97.880;2022-07-23T06:34:07;98580.13;;;32.12;42.59
38880;BME280;25887;30.194;-97.880;2022-07-23T06:36:34;98574.09;;;32.10;42.89
38880;BME280;25887;30.194;-97.880;2022-07-23T06:39:00;98577.72;;;32.09;42.74
38880;BME280;25887;30.194;-97.880;2022-07-23T06:41:26;98565.66;;;32.05;42.69
38880;BME280;25887;30.194;-97.880;2022-07-23T06:43:52;98573.78;;;32.04;43.14
38880;BME280;25887;30.194;-97.880;2022-07-23T06:46:17;98572.22;;;32.01;43.09
38880;BME280;25887;30.194;-97.880;2022-07-23T06:48:44;98576.00;;;31.99;43.14
38880;BME280;25887;30.194;-97.880;2022-07-23T06:51:10;98573.44;;;31.97;43.11
38880;BME280;25887;30.194;-97.880;2022-07-23T06:53:35;98571.06;;;31.94;43.00
38880;BME280;25887;30.194;-97.880;2022-07-23T06:56:01;98582.66;;;31.93;43.03
38880;BME280;25887;30.194;-97.880;2022-07-23T06:58:27;98580.00;;;31.93;42.86
38880;BME280;25887;30.194;-97.880;2022-07-23T07:00:52;98572.03;;;31.93;43.08
38880;BME280;25887;30.194;-97.880;2022-07-23T07:03:18;98568.53;;;31.93;42.84
38880;BME280;25887;30.194;-97.880;2022-07-23T07:05:44;98568.66;;;31.91;43.00
38880;BME280;25887;30.194;-97.880;2022-07-23T07:08:11;98564.31;;;31.90;43.14
38880;BME280;25887;30.194;-97.880;2022-07-23T07:10:38;98572.28;;;31.90;43.20
38880;BME280;25887;30.194;-97.880;2022-07-23T07:13:04;98570.59;;;31.89;43.05
38880;BME280;25887;30.194;-97.880;2022-07-23T07:15:30;98571.72;;;31.86;43.52
38880;BME280;25887;30.194;-97.880;2022-07-23T07:17:56;98571.13;;;31.83;43.68
38880;BME280;25887;30.194;-97.880;2022-07-23T07:20:21;98560.75;;;31.80;43.62
38880;BME280;25887;30.194;-97.880;2022-07-23T07:22:48;98559.06;;;31.79;43.75
38880;BME280;25887;30.194;-97.880;2022-07-23T07:25:14;98554.72;;;31.78;43.53
38880;BME280;25887;30.194;-97.880;2022-07-23T07:27:40;98556.66;;;31.76;43.93
38880;BME280;25887;30.194;-97.880;2022-07-23T07:30:06;98551.56;;;31.73;43.84
38880;BME280;25887;30.194;-97.880;2022-07-23T07:32:32;98545.56;;;31.71;44.12
38880;BME280;25887;30.194;-97.880;2022-07-23T07:34:58;98548.47;;;31.68;44.28
38880;BME280;25887;30.194;-97.880;2022-07-23T07:37:24;98555.72;;;31.66;43.98
38880;BME280;25887;30.194;-97.880;2022-07-23T07:39:49;98548.16;;;31.61;44.38
38880;BME280;25887;30.194;-97.880;2022-07-23T07:42:15;98554.44;;;31.60;44.14
38880;BME280;25887;30.194;-97.880;2022-07-23T07:44:41;98557.19;;;31.58;44.20
38880;BME280;25887;30.194;-97.880;2022-07-23T07:47:06;98562.63;;;31.57;44.38
38880;BME280;25887;30.194;-97.880;2022-07-23T07:49:33;98561.09;;;31.54;44.57
38880;BME280;25887;30.194;-97.880;2022-07-23T07:51:58;98559.41;;;31.53;44.16
38880;BME280;25887;30.194;-97.880;2022-07-23T07:54:24;98560.50;;;31.51;44.18
38880;BME280;25887;30.194;-97.880;2022-07-23T07:56:50;98565.94;;;31.49;44.23
38880;BME280;25887;30.194;-97.880;2022-07-23T07:59:16;98566.06;;;31.48;44.43
38880;BME280;25887;30.194;-97.880;2022-07-23T08:01:42;98572.50;;;31.45;44.28
38880;BME280;25887;30.194;-97.880;2022-07-23T08:04:07;98577.78;;;31.45;44.69
38880;BME280;25887;30.194;-97.880;2022-07-23T08:06:33;98572.72;;;31.42;44.45
38880;BME280;25887;30.194;-97.880;2022-07-23T08:09:00;98580.81;;;31.41;44.25
38880;BME280;25887;30.194;-97.880;2022-07-23T08:11:26;98579.13;;;31.40;44.15
38880;BME280;25887;30.194;-97.880;2022-07-23T08:13:52;98577.31;;;31.40;44.37
38880;BME280;25887;30.194;-97.880;2022-07-23T08:16:18;98575.78;;;31.38;44.51
38880;BME280;25887;30.194;-97.880;2022-07-23T08:18:43;98576.63;;;31.38;44.65
38880;BME280;25887;30.194;-97.880;2022-07-23T08:21:09;98574.94;;;31.37;44.75
38880;BME280;25887;30.194;-97.880;2022-07-23T08:23:35;98579.41;;;31.37;44.75
38880;BME280;25887;30.194;-97.880;2022-07-23T08:26:01;98575.16;;;31.34;44.72
38880;BME280;25887;30.194;-97.880;2022-07-23T08:28:26;98576.84;;;31.35;44.25
38880;BME280;25887;30.194;-97.880;2022-07-23T08:30:52;98575.16;;;31.34;44.37
38880;BME280;25887;30.194;-97.880;2022-07-23T08:33:18;98583.13;;;31.34;44.71
38880;BME280;25887;30.194;-97.880;2022-07-23T08:35:45;98576.13;;;31.33;44.65
38880;BME280;25887;30.194;-97.880;2022-07-23T08:38:12;98576.28;;;31.31;44.57
38880;BME280;25887;30.194;-97.880;2022-07-23T08:40:42;98571.22;;;31.28;44.84
38880;BME280;25887;30.194;-97.880;2022-07-23T08:43:10;98573.97;;;31.27;44.81
38880;BME280;25887;30.194;-97.880;2022-07-23T08:45:37;98576.75;;;31.25;44.84
38880;BME280;25887;30.194;-97.880;2022-07-23T08:48:05;98580.53;;;31.23;44.99
38880;BME280;25887;30.194;-97.880;2022-07-23T08:50:48;98580.63;;;31.21;44.89
38880;BME280;25887;30.194;-97.880;2022-07-23T08:53:14;98579.16;;;31.17;45.44
38880;BME280;25887;30.194;-97.880;2022-07-23T08:55:40;98581.13;;;31.15;45.11
38880;BME280;25887;30.194;-97.880;2022-07-23T08:58:08;98580.41;;;31.13;45.15
38880;BME280;25887;30.194;-97.880;2022-07-23T09:00:34;98580.50;;;31.12;45.12
38880;BME280;25887;30.194;-97.880;2022-07-23T09:03:00;98586.78;;;31.11;45.23
38880;BME280;25887;30.194;-97.880;2022-07-23T09:05:25;98581.47;;;31.11;45.09
38880;BME280;25887;30.194;-97.880;2022-07-23T09:08:25;98586.06;;;31.09;45.16
38880;BME280;25887;30.194;-97.880;2022-07-23T09:10:47;98587.88;;;31.08;45.21
38880;BME280;25887;30.194;-97.880;2022-07-23T09:21:05;98588.13;;;31.05;45.08
38880;BME280;25887;30.194;-97.880;2022-07-23T09:23:54;98590.91;;;31.03;45.13
38880;BME280;25887;30.194;-97.880;2022-07-23T09:31:33;98585.97;;;30.99;45.24
38880;BME280;25887;30.194;-97.880;2022-07-23T09:37:12;98587.06;;;30.96;45.16
38880;BME280;25887;30.194;-97.880;2022-07-23T09:39:39;98595.13;;;30.95;45.36
38880;BME280;25887;30.194;-97.880;2022-07-23T09:42:18;98592.63;;;30.93;45.33
38880;BME280;25887;30.194;-97.880;2022-07-23T09:44:45;98590.09;;;30.92;45.39
38880;BME280;25887;30.194;-97.880;2022-07-23T09:47:11;98592.88;;;30.90;45.39
38880;BME280;25887;30.194;-97.880;2022-07-23T09:49:37;98596.47;;;30.89;45.28
38880;BME280;25887;30.194;-97.880;2022-07-23T09:52:03;98595.63;;;30.89;45.24
38880;BME280;25887;30.194;-97.880;2022-07-23T09:54:36;98594.78;;;30.88;45.16
38880;BME280;25887;30.194;-97.880;2022-07-23T09:57:04;98590.56;;;30.86;45.33
38880;BME280;25887;30.194;-97.880;2022-07-23T09:59:32;98595.03;;;30.85;45.19
38880;BME280;25887;30.194;-97.880;2022-07-23T10:01:59;98595.03;;;30.85;45.28
38880;BME280;25887;30.194;-97.880;2022-07-23T10:04:26;98598.78;;;30.83;45.31
38880;BME280;25887;30.194;-97.880;2022-07-23T10:06:53;98598.03;;;30.81;45.29
38880;BME280;25887;30.194;-97.880;2022-07-23T10:09:22;98602.50;;;30.80;45.42
38880;BME280;25887;30.194;-97.880;2022-07-23T10:11:48;98590.69;;;30.73;45.36
38880;BME280;25887;30.194;-97.880;2022-07-23T10:14:15;98600.25;;;30.75;45.49
38880;BME280;25887;30.194;-97.880;2022-07-23T10:16:41;98596.84;;;30.73;45.47
38880;BME280;25887;30.194;-97.880;2022-07-23T10:19:07;98599.63;;;30.72;45.45
38880;BME280;25887;30.194;-97.880;2022-07-23T10:21:46;98609.50;;;30.70;45.49
38880;BME280;25887;30.194;-97.880;2022-07-23T10:32:08;98596.25;;;30.59;45.70
38880;BME280;25887;30.194;-97.880;2022-07-23T10:37:23;98612.50;;;30.54;45.60
38880;BME280;25887;30.194;-97.880;2022-07-23T10:42:36;98608.63;;;30.47;45.73
38880;BME280;25887;30.194;-97.880;2022-07-23T10:45:03;98603.69;;;30.42;46.03
38880;BME280;25887;30.194;-97.880;2022-07-23T10:47:47;98604.56;;;30.43;46.12
38880;BME280;25887;30.194;-97.880;2022-07-23T10:50:17;98610.78;;;30.42;45.92
38880;BME280;25887;30.194;-97.880;2022-07-23T10:53:09;98605.59;;;30.40;46.09
38880;BME280;25887;30.194;-97.880;2022-07-23T10:57:54;98604.91;;;30.38;45.91
38880;BME280;25887;30.194;-97.880;2022-07-23T11:00:21;98597.91;;;30.37;46.08
38880;BME280;25887;30.194;-97.880;2022-07-23T11:02:48;98593.56;;;30.36;46.23
38880;BME280;25887;30.194;-97.880;2022-07-23T11:05:15;98592.72;;;30.36;45.97
38880;BME280;25887;30.194;-97.880;2022-07-23T11:10:32;98590.28;;;30.33;45.96
38880;BME280;25887;30.194;-97.880;2022-07-23T11:21:44;98594.88;;;30.31;46.44
38880;BME280;25887;30.194;-97.880;2022-07-23T11:24:09;98593.31;;;30.28;46.46
38880;BME280;25887;30.194;-97.880;2022-07-23T11:31:53;98604.97;;;30.26;46.33
38880;BME280;25887;30.194;-97.880;2022-07-23T11:36:50;98612.34;;;30.22;46.26
38880;BME280;25887;30.194;-97.880;2022-07-23T11:39:16;98615.97;;;30.21;46.45
38880;BME280;25887;30.194;-97.880;2022-07-23T11:41:43;98621.25;;;30.21;46.45
38880;BME280;25887;30.194;-97.880;2022-07-23T11:44:28;98625.81;;;30.19;46.68
38880;BME280;25887;30.194;-97.880;2022-07-23T11:46:58;98625.09;;;30.17;46.43
38880;BME280;25887;30.194;-97.880;2022-07-23T11:49:25;98630.53;;;30.15;46.61
38880;BME280;25887;30.194;-97.880;2022-07-23T11:52:07;98629.81;;;30.13;46.32
38880;BME280;25887;30.194;-97.880;2022-07-23T11:54:33;98630.75;;;30.12;46.56
38880;BME280;25887;30.194;-97.880;2022-07-23T11:57:00;98624.72;;;30.10;46.72
38880;BME280;25887;30.194;-97.880;2022-07-23T11:59:26;98634.59;;;30.08;46.57
38880;BME280;25887;30.194;-97.880;2022-07-23T12:01:59;98641.66;;;30.08;46.48
38880;BME280;25887;30.194;-97.880;2022-07-23T12:04:36;98641.78;;;30.06;46.67
38880;BME280;25887;30.194;-97.880;2022-07-23T12:07:02;98659.50;;;30.06;46.78
38880;BME280;25887;30.194;-97.880;2022-07-23T12:12:21;98658.75;;;30.04;46.74
38880;BME280;25887;30.194;-97.880;2022-07-23T12:14:57;98665.00;;;30.03;46.78
38880;BME280;25887;30.194;-97.880;2022-07-23T12:17:30;98671.16;;;30.03;47.04
38880;BME280;25887;30.194;-97.880;2022-07-23T12:19:56;98675.59;;;30.03;47.06
38880;BME280;25887;30.194;-97.880;2022-07-23T12:22:23;98674.75;;;30.02;47.00
38880;BME280;25887;30.194;-97.880;2022-07-23T12:27:22;98668.75;;;30.00;46.79
38880;BME280;25887;30.194;-97.880;2022-07-23T12:29:48;98669.59;;;30.01;46.89
38880;BME280;25887;30.194;-97.880;2022-07-23T12:32:21;98671.50;;;29.99;47.08
38880;BME280;25887;30.194;-97.880;2022-07-23T12:34:49;98665.25;;;30.00;46.98
38880;BME280;25887;30.194;-97.880;2022-07-23T12:37:28;98677.53;;;30.01;47.19
38880;BME280;25887;30.194;-97.880;2022-07-23T12:39:54;98674.03;;;30.00;47.44
38880;BME280;25887;30.194;-97.880;2022-07-23T12:42:20;98672.13;;;30.02;47.11
38880;BME280;25887;30.194;-97.880;2022-07-23T12:47:30;98681.53;;;30.06;47.50
38880;BME280;25887;30.194;-97.880;2022-07-23T12:49:55;98678.56;;;30.11;47.21
38880;BME280;25887;30.194;-97.880;2022-07-23T12:52:21;98687.25;;;30.13;47.25
38880;BME280;25887;30.194;-97.880;2022-07-23T12:54:47;98687.13;;;30.14;47.61
38880;BME280;25887;30.194;-97.880;2022-07-23T12:57:13;98681.00;;;30.14;47.51
38880;BME280;25887;30.194;-97.880;2022-07-23T12:59:38;98680.03;;;30.15;47.24
38880;BME280;25887;30.194;-97.880;2022-07-23T13:02:04;98681.59;;;30.17;47.44
38880;BME280;25887;30.194;-97.880;2022-07-23T13:04:33;98674.59;;;30.16;47.61
38880;BME280;25887;30.194;-97.880;2022-07-23T13:06:59;98678.09;;;30.17;47.62
38880;BME280;25887;30.194;-97.880;2022-07-23T13:09:29;98672.91;;;30.15;47.71
38880;BME280;25887;30.194;-97.880;2022-07-23T13:11:56;98678.94;;;30.17;47.85
38880;BME280;25887;30.194;-97.880;2022-07-23T13:14:22;98683.41;;;30.17;47.76
38880;BME280;25887;30.194;-97.880;2022-07-23T13:16:49;98685.09;;;30.18;47.95
38880;BME280;25887;30.194;-97.880;2022-07-23T13:19:15;98693.16;;;30.16;48.18
38880;BME280;25887;30.194;-97.880;2022-07-23T13:21:41;98697.28;;;30.20;48.42
38880;BME280;25887;30.194;-97.880;2022-07-23T13:24:07;98690.91;;;30.23;48.18
38880;BME280;25887;30.194;-97.880;2022-07-23T13:26:33;98692.34;;;30.27;48.83
38880;BME280;25887;30.194;-97.880;2022-07-23T13:28:59;98695.75;;;30.29;48.38
38880;BME280;25887;30.194;-97.880;2022-07-23T13:31:25;98693.56;;;30.34;48.42
38880;BME280;25887;30.194;-97.880;2022-07-23T13:33:50;98693.22;;;30.39;48.33
38880;BME280;25887;30.194;-97.880;2022-07-23T13:36:16;98684.09;;;30.43;48.32
38880;BME280;25887;30.194;-97.880;2022-07-23T13:38:42;98700.72;;;30.45;48.32
38880;BME280;25887;30.194;-97.880;2022-07-23T13:41:08;98695.28;;;30.46;48.42
38880;BME280;25887;30.194;-97.880;2022-07-23T13:43:33;98703.97;;;30.48;48.64
38880;BME280;25887;30.194;-97.880;2022-07-23T13:45:59;98701.31;;;30.48;48.43
38880;BME280;25887;30.194;-97.880;2022-07-23T13:48:25;98709.16;;;30.50;48.22
38880;BME280;25887;30.194;-97.880;2022-07-23T13:50:51;98711.72;;;30.51;48.35
38880;BME280;25887;30.194;-97.880;2022-07-23T13:53:21;98710.75;;;30.52;48.32
38880;BME280;25887;30.194;-97.880;2022-07-23T13:55:48;98713.25;;;30.54;48.25
38880;BME280;25887;30.194;-97.880;2022-07-23T13:58:14;98715.78;;;30.56;48.29
38880;BME280;25887;30.194;-97.880;2022-07-23T14:00:41;98708.56;;;30.58;48.10
38880;BME280;25887;30.194;-97.880;2022-07-23T14:03:07;98707.50;;;30.60;48.05
38880;BME280;25887;30.194;-97.880;2022-07-23T14:05:33;98707.13;;;30.65;48.25
38880;BME280;25887;30.194;-97.880;2022-07-23T14:07:59;98703.31;;;30.69;48.36
38880;BME280;25887;30.194;-97.880;2022-07-23T14:10:25;98703.06;;;30.72;48.87
38880;BME280;25887;30.194;-97.880;2022-07-23T14:12:51;98712.63;;;30.74;48.99
38880;BME280;25887;30.194;-97.880;2022-07-23T14:15:23;98702.84;;;30.75;49.38